sensor_id;sensor_type;location;lat;lon;timestamp;pressure;altitude;pressure_sealevel;temperature;humidity
37486;BME280;23341;50.296;18.960;2022-10-03T00:02:12;148358.75;;;8.94;100.00
37486;BME280;23341;50.296;18.960;2022-10-03T00:07:33;148365.22;;;8.97;100.00
37486;BME280;23341;50.296;18.960;2022-10-03T00:12:56;148348.47;;;8.90;100.00
37486;BME280;23341;50.296;18.960;2022-10-03T00:18:08;148317.66;;;8.78;100.00
37486;BME280;23341;50.296;18.960;2022-10-03T00:23:22;148360.03;;;8.95;100.00
37486;BME280;23341;50.296;18.960;2022-10-03T00:28:47;148353.66;;;8.92;100.00
37486;BME280;23341;50.296;18.960;2022-10-03T00:34:02;148380.63;;;9.03;100.00
37486;BME280;23341;50.296;18.960;2022-10-03T00:39:42;148354.94;;;8.93;100.00
37486;BME280;23341;50.296;18.960;2022-10-03T00:50:39;148390.94;;;9.07;100.00
37486;BME280;23341;50.296;18.960;2022-10-03T00:55:54;148396.09;;;9.09;100.00
37486;BME280;23341;50.296;18.960;2022-10-03T01:01:20;148380.63;;;9.03;100.00
37486;BME280;23341;50.296;18.960;2022-10-03T01:06:33;148425.69;;;9.21;100.00
37486;BME280;23341;50.296;18.960;2022-10-03T01:11:48;148407.66;;;9.14;100.00
37486;BME280;23341;50.296;18.960;2022-10-03T01:17:04;148384.53;;;9.05;100.00
37486;BME280;23341;50.296;18.960;2022-10-03T01:22:28;148393.53;;;9.08;100.00
37486;BME280;23341;50.296;18.960;2022-10-03T01:27:43;148352.38;;;8.92;100.00
37486;BME280;23341;50.296;18.960;2022-10-03T01:33:08;148362.66;;;8.96;100.00
37486;BME280;23341;50.296;18.960;2022-10-03T01:38:16;148380.63;;;9.03;100.00
37486;BME280;23341;50.296;18.960;2022-10-03T01:43:31;148352.38;;;8.92;100.00
37486;BME280;23341;50.296;18.960;2022-10-03T01:48:43;148388.38;;;9.06;100.00
37486;BME280;23341;50.296;18.960;2022-10-03T01:54:02;148369.06;;;8.98;100.00
37486;BME280;23341;50.296;18.960;2022-10-03T01:59:11;148393.53;;;9.08;100.00
37486;BME280;23341;50.296;18.960;2022-10-03T02:04:30;148357.47;;;8.94;100.00
37486;BME280;23341;50.296;18.960;2022-10-03T02:09:47;148398.66;;;9.10;100.00
37486;BME280;23341;50.296;18.960;2022-10-03T02:14:58;148370.34;;;8.99;100.00
37486;BME280;23341;50.296;18.960;2022-10-03T02:20:10;148370.34;;;8.99;100.00
37486;BME280;23341;50.296;18.960;2022-10-03T02:25:23;148393.53;;;9.08;100.00
37486;BME280;23341;50.296;18.960;2022-10-03T02:30:30;148390.94;;;9.07;100.00
37486;BME280;23341;50.296;18.960;2022-10-03T02:36:14;148334.34;;;8.85;100.00
37486;BME280;23341;50.296;18.960;2022-10-03T02:41:52;148378.06;;;9.02;100.00
37486;BME280;23341;50.296;18.960;2022-10-03T02:47:41;148362.66;;;8.96;100.00
37486;BME280;23341;50.296;18.960;2022-10-03T03:16:10;148411.50;;;9.15;100.00
37486;BME280;23341;50.296;18.960;2022-10-03T03:21:26;148403.84;;;9.12;100.00
37486;BME280;23341;50.296;18.960;2022-10-03T03:26:48;148421.81;;;9.19;100.00
37486;BME280;23341;50.296;18.960;2022-10-03T03:31:59;148405.13;;;9.13;100.00
37486;BME280;23341;50.296;18.960;2022-10-03T03:37:08;148439.84;;;9.26;100.00
37486;BME280;23341;50.296;18.960;2022-10-03T03:42:38;148425.69;;;9.21;100.00
37486;BME280;23341;50.296;18.960;2022-10-03T03:47:55;148448.84;;;9.30;100.00
37486;BME280;23341;50.296;18.960;2022-10-03T03:53:19;148414.06;;;9.16;100.00
37486;BME280;23341;50.296;18.960;2022-10-03T03:58:35;148414.06;;;9.16;100.00
37486;BME280;23341;50.296;18.960;2022-10-03T04:03:48;148448.84;;;9.30;100.00
37486;BME280;23341;50.296;18.960;2022-10-03T04:09:14;148419.25;;;9.18;100.00
37486;BME280;23341;50.296;18.960;2022-10-03T04:14:43;148406.38;;;9.13;100.00
37486;BME280;23341;50.296;18.960;2022-10-03T04:20:02;148430.81;;;9.23;100.00
37486;BME280;23341;50.296;18.960;2022-10-03T04:25:23;148396.09;;;9.09;100.00
37486;BME280;23341;50.296;18.960;2022-10-03T04:30:44;148416.69;;;9.17;100.00
37486;BME280;23341;50.296;18.960;2022-10-03T04:41:43;148365.22;;;8.97;100.00
37486;BME280;23341;50.296;18.960;2022-10-03T04:46:51;148298.34;;;8.70;100.00
37486;BME280;23341;50.296;18.960;2022-10-03T04:52:01;148275.22;;;8.61;100.00
37486;BME280;23341;50.296;18.960;2022-10-03T04:57:09;148253.34;;;8.52;100.00
37486;BME280;23341;50.296;18.960;2022-10-03T05:02:30;148249.47;;;8.51;100.00
37486;BME280;23341;50.296;18.960;2022-10-03T05:07:41;148222.50;;;8.40;100.00
37486;BME280;23341;50.296;18.960;2022-10-03T05:12:53;148221.19;;;8.40;100.00
37486;BME280;23341;50.296;18.960;2022-10-03T05:18:04;148218.59;;;8.39;100.00
37486;BME280;23341;50.296;18.960;2022-10-03T05:23:26;148203.13;;;8.33;100.00
37486;BME280;23341;50.296;18.960;2022-10-03T05:28:37;148199.31;;;8.31;100.00
37486;BME280;23341;50.296;18.960;2022-10-03T05:33:51;148214.75;;;8.37;100.00
37486;BME280;23341;50.296;18.960;2022-10-03T05:39:24;148187.72;;;8.26;100.00
37486;BME280;23341;50.296;18.960;2022-10-03T05:44:37;148217.31;;;8.38;100.00
37486;BME280;23341;50.296;18.960;2022-10-03T05:49:57;148200.59;;;8.32;100.00
37486;BME280;23341;50.296;18.960;2022-10-03T05:55:29;148192.84;;;8.28;100.00
37486;BME280;23341;50.296;18.960;2022-10-03T06:00:55;148235.34;;;8.45;100.00
37486;BME280;23341;50.296;18.960;2022-10-03T06:06:11;148252.03;;;8.52;100.00
37486;BME280;23341;50.296;18.960;2022-10-03T06:11:54;148284.16;;;8.65;100.00
37486;BME280;23341;50.296;18.960;2022-10-03T06:17:22;148324.06;;;8.81;100.00
37486;BME280;23341;50.296;18.960;2022-10-03T06:22:42;148330.50;;;8.83;100.00
37486;BME280;23341;50.296;18.960;2022-10-03T06:45:38;148366.50;;;8.97;100.00
37486;BME280;23341;50.296;18.960;2022-10-03T06:50:52;148384.53;;;9.05;100.00
37486;BME280;23341;50.296;18.960;2022-10-03T06:56:33;148414.06;;;9.16;100.00
37486;BME280;23341;50.296;18.960;2022-10-03T07:13:05;148415.41;;;9.17;100.00
37486;BME280;23341;50.296;18.960;2022-10-03T07:18:33;148436.00;;;9.25;100.00
37486;BME280;23341;50.296;18.960;2022-10-03T07:23:58;148519.59;;;9.58;100.00
37486;BME280;23341;50.296;18.960;2022-10-03T07:29:14;148560.78;;;9.74;100.00
37486;BME280;23341;50.296;18.960;2022-10-03T07:34:38;148712.75;;;10.35;100.00
37486;BME280;23341;50.296;18.960;2022-10-03T07:40:06;148846.72;;;10.88;100.00
37486;BME280;23341;50.296;18.960;2022-10-03T07:45:31;148808.06;;;10.72;100.00
37486;BME280;23341;50.296;18.960;2022-10-03T07:50:48;148856.97;;;10.92;100.00
37486;BME280;23341;50.296;18.960;2022-10-03T07:56:04;148846.72;;;10.88;100.00
37486;BME280;23341;50.296;18.960;2022-10-03T08:01:47;148786.16;;;10.64;100.00
37486;BME280;23341;50.296;18.960;2022-10-03T08:07:10;148738.53;;;10.45;100.00
37486;BME280;23341;50.296;18.960;2022-10-03T08:18:31;148540.19;;;9.66;100.00
37486;BME280;23341;50.296;18.960;2022-10-03T08:35:44;148576.22;;;9.81;100.00
37486;BME280;23341;50.296;18.960;2022-10-03T08:41:21;148578.81;;;9.82;100.00
37486;BME280;23341;50.296;18.960;2022-10-03T08:46:52;148527.34;;;9.61;100.00
37486;BME280;23341;50.296;18.960;2022-10-03T08:52:15;148571.09;;;9.78;100.00
37486;BME280;23341;50.296;18.960;2022-10-03T08:57:43;148547.94;;;9.69;100.00
37486;BME280;23341;50.296;18.960;2022-10-03T09:09:04;148567.25;;;9.77;100.00
37486;BME280;23341;50.296;18.960;2022-10-03T09:20:11;148501.59;;;9.51;100.00
37486;BME280;23341;50.296;18.960;2022-10-03T09:25:33;148544.09;;;9.68;100.00
37486;BME280;23341;50.296;18.960;2022-10-03T09:30:49;148696.03;;;10.28;100.00
37486;BME280;23341;50.296;18.960;2022-10-03T09:36:07;148698.59;;;10.29;100.00
37486;BME280;23341;50.296;18.960;2022-10-03T09:41:41;148586.50;;;9.85;100.00
37486;BME280;23341;50.296;18.960;2022-10-03T09:52:44;148779.69;;;10.61;100.00
37486;BME280;23341;50.296;18.960;2022-10-03T10:04:22;148795.19;;;10.67;100.00
37486;BME280;23341;50.296;18.960;2022-10-03T10:10:09;148842.81;;;10.86;100.00
37486;BME280;23341;50.296;18.960;2022-10-03T10:27:19;148827.38;;;10.80;100.00
37486;BME280;23341;50.296;18.960;2022-10-03T10:38:22;148872.47;;;10.98;100.00
37486;BME280;23341;50.296;18.960;2022-10-03T10:43:55;148814.53;;;10.75;100.00
37486;BME280;23341;50.296;18.960;2022-10-03T10:49:33;148671.47;;;10.18;100.00
37486;BME280;23341;50.296;18.960;2022-10-03T10:55:09;148571.09;;;9.78;100.00
37486;BME280;23341;50.296;18.960;2022-10-03T11:00:21;148604.56;;;9.92;100.00
37486;BME280;23341;50.296;18.960;2022-10-03T11:17:25;148477.13;;;9.41;100.00
37486;BME280;23341;50.296;18.960;2022-10-03T11:23:01;148481.00;;;9.43;100.00
37486;BME280;23341;50.296;18.960;2022-10-03T11:39:48;148568.53;;;9.77;100.00
37486;BME280;23341;50.296;18.960;2022-10-03T11:44:58;148542.75;;;9.67;100.00
37486;BME280;23341;50.296;18.960;2022-10-03T11:50:35;148555.66;;;9.72;100.00
37486;BME280;23341;50.296;18.960;2022-10-03T11:55:46;148559.50;;;9.74;100.00
37486;BME280;23341;50.296;18.960;2022-10-03T12:00:57;148594.25;;;9.88;100.00
37486;BME280;23341;50.296;18.960;2022-10-03T12:06:10;148587.84;;;9.85;100.00
37486;BME280;23341;50.296;18.960;2022-10-03T12:11:38;148565.97;;;9.76;100.00
37486;BME280;23341;50.296;18.960;2022-10-03T12:16:56;148574.94;;;9.80;100.00
37486;BME280;23341;50.296;18.960;2022-10-03T12:22:15;148547.94;;;9.69;100.00
37486;BME280;23341;50.296;18.960;2022-10-03T12:27:35;148517.03;;;9.57;100.00
37486;BME280;23341;50.296;18.960;2022-10-03T12:32:47;148490.03;;;9.46;100.00
37486;BME280;23341;50.296;18.960;2022-10-03T12:38:03;148519.59;;;9.58;100.00
37486;BME280;23341;50.296;18.960;2022-10-03T12:43:28;148555.66;;;9.72;100.00
37486;BME280;23341;50.296;18.960;2022-10-03T12:48:43;148587.84;;;9.85;100.00
37486;BME280;23341;50.296;18.960;2022-10-03T12:54:00;148582.66;;;9.83;100.00
37486;BME280;23341;50.296;18.960;2022-10-03T12:59:28;148622.59;;;9.99;100.00
37486;BME280;23341;50.296;18.960;2022-10-03T13:04:40;148648.31;;;10.09;100.00
37486;BME280;23341;50.296;18.960;2022-10-03T13:09:58;148732.06;;;10.42;100.00
37486;BME280;23341;50.296;18.960;2022-10-03T13:15:39;148732.06;;;10.42;100.00
37486;BME280;23341;50.296;18.960;2022-10-03T13:20:54;148725.63;;;10.40;100.00
37486;BME280;23341;50.296;18.960;2022-10-03T13:26:07;148625.16;;;10.00;100.00
37486;BME280;23341;50.296;18.960;2022-10-03T13:31:22;148586.50;;;9.85;100.00
37486;BME280;23341;50.296;18.960;2022-10-03T13:36:31;148542.75;;;9.67;100.00
37486;BME280;23341;50.296;18.960;2022-10-03T13:41:56;148444.97;;;9.28;100.00
37486;BME280;23341;50.296;18.960;2022-10-03T13:47:12;148463.00;;;9.36;100.00
37486;BME280;23341;50.296;18.960;2022-10-03T13:52:25;148455.25;;;9.33;100.00
37486;BME280;23341;50.296;18.960;2022-10-03T13:57:35;148419.25;;;9.18;100.00
37486;BME280;23341;50.296;18.960;2022-10-03T14:03:03;148426.97;;;9.21;100.00
37486;BME280;23341;50.296;18.960;2022-10-03T14:08:23;148438.56;;;9.26;100.00
37486;BME280;23341;50.296;18.960;2022-10-03T14:13:37;148442.41;;;9.27;100.00
37486;BME280;23341;50.296;18.960;2022-10-03T14:18:55;148447.56;;;9.30;100.00
37486;BME280;23341;50.296;18.960;2022-10-03T14:24:13;148412.78;;;9.16;100.00
37486;BME280;23341;50.296;18.960;2022-10-03T14:29:25;148463.00;;;9.36;100.00
37486;BME280;23341;50.296;18.960;2022-10-03T14:34:41;148460.44;;;9.35;100.00
37486;BME280;23341;50.296;18.960;2022-10-03T14:39:58;148447.56;;;9.30;100.00
37486;BME280;23341;50.296;18.960;2022-10-03T14:45:11;148517.03;;;9.57;100.00
37486;BME280;23341;50.296;18.960;2022-10-03T14:50:18;148541.47;;;9.67;100.00
37486;BME280;23341;50.296;18.960;2022-10-03T14:55:24;148568.53;;;9.77;100.00
37486;BME280;23341;50.296;18.960;2022-10-03T15:00:37;148564.63;;;9.76;100.00
37486;BME280;23341;50.296;18.960;2022-10-03T15:05:55;148602.00;;;9.91;100.00
37486;BME280;23341;50.296;18.960;2022-10-03T15:11:02;148617.41;;;9.97;100.00
37486;BME280;23341;50.296;18.960;2022-10-03T15:16:13;148611.00;;;9.94;100.00
37486;BME280;23341;50.296;18.960;2022-10-03T15:21:19;148604.56;;;9.92;100.00
37486;BME280;23341;50.296;18.960;2022-10-03T15:26:31;148586.50;;;9.85;100.00
37486;BME280;23341;50.296;18.960;2022-10-03T15:31:44;148554.34;;;9.72;100.00
37486;BME280;23341;50.296;18.960;2022-10-03T15:36:52;148490.03;;;9.46;100.00
37486;BME280;23341;50.296;18.960;2022-10-03T15:42:01;148519.59;;;9.58;100.00
37486;BME280;23341;50.296;18.960;2022-10-03T15:47:13;148493.88;;;9.48;100.00
37486;BME280;23341;50.296;18.960;2022-10-03T15:52:19;148509.28;;;9.54;100.00
37486;BME280;23341;50.296;18.960;2022-10-03T15:57:27;148473.28;;;9.40;100.00
37486;BME280;23341;50.296;18.960;2022-10-03T16:02:34;148432.09;;;9.23;100.00
37486;BME280;23341;50.296;18.960;2022-10-03T16:07:43;148447.56;;;9.30;100.00
37486;BME280;23341;50.296;18.960;2022-10-03T16:12:56;148428.25;;;9.22;100.00
37486;BME280;23341;50.296;18.960;2022-10-03T16:18:05;148429.53;;;9.22;100.00
37486;BME280;23341;50.296;18.960;2022-10-03T16:23:18;148451.41;;;9.31;100.00
37486;BME280;23341;50.296;18.960;2022-10-03T16:28:29;148461.72;;;9.35;100.00
37486;BME280;23341;50.296;18.960;2022-10-03T16:33:36;148432.09;;;9.23;100.00
37486;BME280;23341;50.296;18.960;2022-10-03T16:38:44;148392.22;;;9.08;100.00
37486;BME280;23341;50.296;18.960;2022-10-03T16:43:54;148436.00;;;9.25;100.00
37486;BME280;23341;50.296;18.960;2022-10-03T16:49:02;148452.69;;;9.32;100.00
37486;BME280;23341;50.296;18.960;2022-10-03T16:54:29;148457.88;;;9.34;100.00
37486;BME280;23341;50.296;18.960;2022-10-03T16:59:35;148461.72;;;9.35;100.00
37486;BME280;23341;50.296;18.960;2022-10-03T17:04:46;148481.00;;;9.43;100.00
37486;BME280;23341;50.296;18.960;2022-10-03T17:09:53;148465.56;;;9.37;100.00
37486;BME280;23341;50.296;18.960;2022-10-03T17:15:01;148438.56;;;9.26;100.00
37486;BME280;23341;50.296;18.960;2022-10-03T17:20:12;148448.84;;;9.30;100.00
37486;BME280;23341;50.296;18.960;2022-10-03T17:25:36;148456.53;;;9.33;100.00
37486;BME280;23341;50.296;18.960;2022-10-03T17:30:46;148424.38;;;9.20;100.00
37486;BME280;23341;50.296;18.960;2022-10-03T17:36:05;148423.09;;;9.20;100.00
37486;BME280;23341;50.296;18.960;2022-10-03T17:41:20;148392.22;;;9.08;100.00
37486;BME280;23341;50.296;18.960;2022-10-03T17:46:32;148403.84;;;9.12;100.00
37486;BME280;23341;50.296;18.960;2022-10-03T17:51:39;148412.78;;;9.16;100.00
37486;BME280;23341;50.296;18.960;2022-10-03T17:56:50;148444.97;;;9.28;100.00
37486;BME280;23341;50.296;18.960;2022-10-03T18:01:56;148464.28;;;9.36;100.00
37486;BME280;23341;50.296;18.960;2022-10-03T18:07:06;148475.84;;;9.41;100.00
37486;BME280;23341;50.296;18.960;2022-10-03T18:12:21;148493.88;;;9.48;100.00
37486;BME280;23341;50.296;18.960;2022-10-03T18:17:46;148506.75;;;9.53;100.00
37486;BME280;23341;50.296;18.960;2022-10-03T18:22:57;148473.28;;;9.40;100.00
37486;BME280;23341;50.296;18.960;2022-10-03T18:28:10;148481.00;;;9.43;100.00
37486;BME280;23341;50.296;18.960;2022-10-03T18:33:21;148492.59;;;9.47;100.00
37486;BME280;23341;50.296;18.960;2022-10-03T18:38:31;148511.91;;;9.55;100.00
37486;BME280;23341;50.296;18.960;2022-10-03T18:43:38;148479.72;;;9.42;100.00
37486;BME280;23341;50.296;18.960;2022-10-03T18:48:54;148468.09;;;9.38;100.00
37486;BME280;23341;50.296;18.960;2022-10-03T18:54:25;148432.09;;;9.23;100.00
37486;BME280;23341;50.296;18.960;2022-10-03T18:59:36;148432.09;;;9.23;100.00
37486;BME280;23341;50.296;18.960;2022-10-03T19:04:47;148380.63;;;9.03;100.00
37486;BME280;23341;50.296;18.960;2022-10-03T19:10:12;148309.91;;;8.75;100.00
37486;BME280;23341;50.296;18.960;2022-10-03T19:15:24;148239.19;;;8.47;100.00
37486;BME280;23341;50.296;18.960;2022-10-03T19:20:37;148228.88;;;8.43;100.00
37486;BME280;23341;50.296;18.960;2022-10-03T19:25:47;148294.47;;;8.69;100.00
37486;BME280;23341;50.296;18.960;2022-10-03T19:30:56;148330.50;;;8.83;100.00
37486;BME280;23341;50.296;18.960;2022-10-03T19:36:03;148365.22;;;8.97;100.00
37486;BME280;23341;50.296;18.960;2022-10-03T19:41:19;148357.47;;;8.94;100.00
37486;BME280;23341;50.296;18.960;2022-10-03T19:46:58;148360.03;;;8.95;100.00
37486;BME280;23341;50.296;18.960;2022-10-03T19:52:15;148354.94;;;8.93;100.00
37486;BME280;23341;50.296;18.960;2022-10-03T19:57:24;148297.06;;;8.70;100.00
37486;BME280;23341;50.296;18.960;2022-10-03T20:02:29;148250.75;;;8.51;100.00
37486;BME280;23341;50.296;18.960;2022-10-03T20:07:42;148249.47;;;8.51;100.00
37486;BME280;23341;50.296;18.960;2022-10-03T20:12:50;148253.34;;;8.52;100.00
37486;BME280;23341;50.296;18.960;2022-10-03T20:17:58;148245.63;;;8.49;100.00
37486;BME280;23341;50.296;18.960;2022-10-03T20:23:04;148267.47;;;8.58;100.00
37486;BME280;23341;50.296;18.960;2022-10-03T20:28:17;148261.03;;;8.56;100.00
37486;BME280;23341;50.296;18.960;2022-10-03T20:33:23;148293.19;;;8.68;100.00
37486;BME280;23341;50.296;18.960;2022-10-03T20:38:45;148267.47;;;8.58;100.00
37486;BME280;23341;50.296;18.960;2022-10-03T20:43:55;148302.19;;;8.72;100.00
37486;BME280;23341;50.296;18.960;2022-10-03T20:49:20;148272.59;;;8.60;100.00
37486;BME280;23341;50.296;18.960;2022-10-03T20:54:33;148293.19;;;8.68;100.00
37486;BME280;23341;50.296;18.960;2022-10-03T20:59:42;148304.75;;;8.73;100.00
37486;BME280;23341;50.296;18.960;2022-10-03T21:04:51;148300.91;;;8.71;100.00
37486;BME280;23341;50.296;18.960;2022-10-03T21:10:03;148313.75;;;8.76;100.00
37486;BME280;23341;50.296;18.960;2022-10-03T21:15:22;148277.78;;;8.62;100.00
37486;BME280;23341;50.296;18.960;2022-10-03T21:20:35;148282.88;;;8.64;100.00
37486;BME280;23341;50.296;18.960;2022-10-03T21:25:41;148286.78;;;8.66;100.00
37486;BME280;23341;50.296;18.960;2022-10-03T21:30:58;148257.19;;;8.54;100.00
37486;BME280;23341;50.296;18.960;2022-10-03T21:36:09;148262.31;;;8.56;100.00
37486;BME280;23341;50.296;18.960;2022-10-03T21:41:28;148273.88;;;8.61;100.00
37486;BME280;23341;50.296;18.960;2022-10-03T21:46:45;148285.50;;;8.65;100.00
37486;BME280;23341;50.296;18.960;2022-10-03T21:52:06;148281.59;;;8.64;100.00
37486;BME280;23341;50.296;18.960;2022-10-03T21:57:22;148268.75;;;8.59;100.00
37486;BME280;23341;50.296;18.960;2022-10-03T22:02:34;148267.47;;;8.58;100.00
37486;BME280;23341;50.296;18.960;2022-10-03T22:07:41;148234.06;;;8.45;100.00
37486;BME280;23341;50.296;18.960;2022-10-03T22:12:47;148243.06;;;8.48;100.00
37486;BME280;23341;50.296;18.960;2022-10-03T22:17:57;148268.75;;;8.59;100.00
37486;BME280;23341;50.296;18.960;2022-10-03T22:23:18;148275.22;;;8.61;100.00
37486;BME280;23341;50.296;18.960;2022-10-03T22:28:34;148258.47;;;8.55;100.00
37486;BME280;23341;50.296;18.960;2022-10-03T22:33:53;148249.47;;;8.51;100.00
37486;BME280;23341;50.296;18.960;2022-10-03T22:38:57;148244.34;;;8.49;100.00
37486;BME280;23341;50.296;18.960;2022-10-03T22:44:05;148237.91;;;8.46;100.00
37486;BME280;23341;50.296;18.960;2022-10-03T22:49:17;148219.88;;;8.39;100.00
37486;BME280;23341;50.296;18.960;2022-10-03T22:54:22;148231.50;;;8.44;100.00
37486;BME280;23341;50.296;18.960;2022-10-03T22:59:34;148187.72;;;8.26;100.00
37486;BME280;23341;50.296;18.960;2022-10-03T23:04:46;148190.28;;;8.27;100.00
37486;BME280;23341;50.296;18.960;2022-10-03T23:09:59;148128.59;;;8.03;100.00
37486;BME280;23341;50.296;18.960;2022-10-03T23:15:07;148070.75;;;7.80;100.00
37486;BME280;23341;50.296;18.960;2022-10-03T23:20:22;147992.34;;;7.49;100.00
37486;BME280;23341;50.296;18.960;2022-10-03T23:25:32;147890.91;;;7.09;100.00
37486;BME280;23341;50.296;18.960;2022-10-03T23:30:47;147812.56;;;6.77;100.00
37486;BME280;23341;50.296;18.960;2022-10-03T23:35:53;147703.47;;;6.34;100.00
37486;BME280;23341;50.296;18.960;2022-10-03T23:40:58;147697.03;;;6.32;100.00
37486;BME280;23341;50.296;18.960;2022-10-03T23:46:08;147564.81;;;5.79;100.00
37486;BME280;23341;50.296;18.960;2022-10-03T23:51:17;147327.59;;;4.85;100.00
37486;BME280;23341;50.296;18.960;2022-10-03T23:56:27;146943.25;;;3.32;100.00
